Terminal Aerodrome Forecast
Issued by NWS

Home | Current Version | Previous Version | Text Only | Print | Product List | Glossary On
Versions: 1 2 3 4 5 6 7 8 9 10 11 12 13 14 15 16 17 18 19 20 21 22 23 24 25 26 27 28 29 30
000
FTAK31 PAFA 280112 AAA
TAFAOR
TAF AMD
PAOR 280112Z 2801/2824 32006KT P6SM VCSH FEW040 BKN070 OVC210
     FM280600 29002KT P6SM VCSH SCT025 BKN060 OVC200
     FM282100 33004KT P6SM OVC050=

USA.gov is the U.S. government's official web portal to all federal, state and local government web resources and services.